sensor_id;sensor_type;location;lat;lon;timestamp;P1;durP1;ratioP1;P2;durP2;ratioP2
9976;SDS011;5029;47.378;11.776;2022-12-15T00:03:09;6.80;;;5.40;;
9976;SDS011;5029;47.378;11.776;2022-12-15T00:08:43;5.77;;;4.87;;
9976;SDS011;5029;47.378;11.776;2022-12-15T00:14:11;5.63;;;4.13;;
9976;SDS011;5029;47.378;11.776;2022-12-15T00:19:37;6.57;;;5.00;;
9976;SDS011;5029;47.378;11.776;2022-12-15T00:25:05;5.50;;;4.37;;
9976;SDS011;5029;47.378;11.776;2022-12-15T00:30:31;5.83;;;4.67;;
9976;SDS011;5029;47.378;11.776;2022-12-15T00:36:06;6.23;;;4.40;;
9976;SDS011;5029;47.378;11.776;2022-12-15T00:41:43;5.10;;;4.40;;
9976;SDS011;5029;47.378;11.776;2022-12-15T00:46:57;6.13;;;4.57;;
9976;SDS011;5029;47.378;11.776;2022-12-15T00:52:16;6.13;;;5.10;;
9976;SDS011;5029;47.378;11.776;2022-12-15T00:57:43;5.60;;;5.00;;
9976;SDS011;5029;47.378;11.776;2022-12-15T01:03:10;10.40;;;6.27;;
9976;SDS011;5029;47.378;11.776;2022-12-15T01:08:41;6.83;;;4.80;;
9976;SDS011;5029;47.378;11.776;2022-12-15T01:19:52;6.60;;;5.47;;
9976;SDS011;5029;47.378;11.776;2022-12-15T01:25:29;6.67;;;5.80;;
9976;SDS011;5029;47.378;11.776;2022-12-15T01:30:45;6.10;;;5.07;;
9976;SDS011;5029;47.378;11.776;2022-12-15T01:36:09;8.70;;;4.67;;
9976;SDS011;5029;47.378;11.776;2022-12-15T01:41:17;6.23;;;4.50;;
9976;SDS011;5029;47.378;11.776;2022-12-15T01:46:29;8.57;;;4.83;;
9976;SDS011;5029;47.378;11.776;2022-12-15T01:52:03;6.93;;;4.37;;
9976;SDS011;5029;47.378;11.776;2022-12-15T01:57:19;5.63;;;4.50;;
9976;SDS011;5029;47.378;11.776;2022-12-15T02:02:34;7.33;;;5.60;;
9976;SDS011;5029;47.378;11.776;2022-12-15T02:07:51;6.37;;;5.00;;
9976;SDS011;5029;47.378;11.776;2022-12-15T02:13:13;5.53;;;4.90;;
9976;SDS011;5029;47.378;11.776;2022-12-15T02:18:29;5.73;;;4.60;;
9976;SDS011;5029;47.378;11.776;2022-12-15T02:24:06;6.33;;;4.60;;
9976;SDS011;5029;47.378;11.776;2022-12-15T02:29:34;4.80;;;4.20;;
9976;SDS011;5029;47.378;11.776;2022-12-15T02:35:14;5.73;;;4.80;;
9976;SDS011;5029;47.378;11.776;2022-12-15T02:40:38;5.20;;;4.47;;
9976;SDS011;5029;47.378;11.776;2022-12-15T02:45:49;5.07;;;4.47;;
9976;SDS011;5029;47.378;11.776;2022-12-15T02:56:40;7.43;;;5.70;;
9976;SDS011;5029;47.378;11.776;2022-12-15T03:02:10;7.50;;;5.30;;
9976;SDS011;5029;47.378;11.776;2022-12-15T03:07:26;7.47;;;5.93;;
9976;SDS011;5029;47.378;11.776;2022-12-15T03:12:36;6.53;;;5.47;;
9976;SDS011;5029;47.378;11.776;2022-12-15T03:17:49;7.53;;;6.00;;
9976;SDS011;5029;47.378;11.776;2022-12-15T03:23:06;7.50;;;5.87;;
9976;SDS011;5029;47.378;11.776;2022-12-15T03:28:21;6.77;;;6.07;;
9976;SDS011;5029;47.378;11.776;2022-12-15T03:33:39;7.77;;;6.13;;
9976;SDS011;5029;47.378;11.776;2022-12-15T03:39:06;8.30;;;5.57;;
9976;SDS011;5029;47.378;11.776;2022-12-15T03:44:22;7.90;;;6.00;;
9976;SDS011;5029;47.378;11.776;2022-12-15T03:49:29;7.60;;;5.87;;
9976;SDS011;5029;47.378;11.776;2022-12-15T03:54:42;6.80;;;5.70;;
9976;SDS011;5029;47.378;11.776;2022-12-15T03:59:55;5.60;;;5.03;;
9976;SDS011;5029;47.378;11.776;2022-12-15T04:05:08;7.40;;;5.73;;
9976;SDS011;5029;47.378;11.776;2022-12-15T04:10:31;5.87;;;5.10;;
9976;SDS011;5029;47.378;11.776;2022-12-15T04:15:46;8.20;;;5.43;;
9976;SDS011;5029;47.378;11.776;2022-12-15T04:21:24;6.40;;;5.50;;
9976;SDS011;5029;47.378;11.776;2022-12-15T04:26:50;6.03;;;5.43;;
9976;SDS011;5029;47.378;11.776;2022-12-15T04:32:22;6.00;;;5.40;;
9976;SDS011;5029;47.378;11.776;2022-12-15T04:37:53;5.90;;;5.30;;
9976;SDS011;5029;47.378;11.776;2022-12-15T04:43:37;5.93;;;5.30;;
9976;SDS011;5029;47.378;11.776;2022-12-15T04:49:00;5.00;;;4.50;;
9976;SDS011;5029;47.378;11.776;2022-12-15T04:54:39;9.23;;;7.17;;
9976;SDS011;5029;47.378;11.776;2022-12-15T05:00:16;7.53;;;6.73;;
9976;SDS011;5029;47.378;11.776;2022-12-15T05:05:43;7.40;;;5.93;;
9976;SDS011;5029;47.378;11.776;2022-12-15T05:11:27;6.43;;;5.73;;
9976;SDS011;5029;47.378;11.776;2022-12-15T05:22:54;7.00;;;5.60;;
9976;SDS011;5029;47.378;11.776;2022-12-15T05:28:29;9.53;;;6.07;;
9976;SDS011;5029;47.378;11.776;2022-12-15T05:34:05;6.77;;;6.03;;
9976;SDS011;5029;47.378;11.776;2022-12-15T05:39:12;6.30;;;5.53;;
9976;SDS011;5029;47.378;11.776;2022-12-15T06:06:06;7.83;;;6.23;;
9976;SDS011;5029;47.378;11.776;2022-12-15T06:11:13;8.43;;;6.67;;
9976;SDS011;5029;47.378;11.776;2022-12-15T06:16:20;9.27;;;6.70;;
9976;SDS011;5029;47.378;11.776;2022-12-15T06:21:28;8.20;;;6.13;;
9976;SDS011;5029;47.378;11.776;2022-12-15T06:26:34;7.33;;;5.87;;
9976;SDS011;5029;47.378;11.776;2022-12-15T06:31:40;7.23;;;5.97;;
9976;SDS011;5029;47.378;11.776;2022-12-15T06:36:55;10.60;;;9.17;;
9976;SDS011;5029;47.378;11.776;2022-12-15T06:42:02;7.60;;;6.80;;
9976;SDS011;5029;47.378;11.776;2022-12-15T06:47:07;9.07;;;5.97;;
9976;SDS011;5029;47.378;11.776;2022-12-15T06:52:16;7.50;;;5.67;;
9976;SDS011;5029;47.378;11.776;2022-12-15T06:57:21;7.93;;;6.20;;
9976;SDS011;5029;47.378;11.776;2022-12-15T07:02:31;6.80;;;6.10;;
9976;SDS011;5029;47.378;11.776;2022-12-15T07:08:00;10.67;;;8.80;;
9976;SDS011;5029;47.378;11.776;2022-12-15T07:13:34;7.43;;;5.67;;
9976;SDS011;5029;47.378;11.776;2022-12-15T07:18:38;6.47;;;5.77;;
9976;SDS011;5029;47.378;11.776;2022-12-15T07:23:54;6.67;;;5.90;;
9976;SDS011;5029;47.378;11.776;2022-12-15T07:29:01;12.20;;;8.50;;
9976;SDS011;5029;47.378;11.776;2022-12-15T07:34:06;9.30;;;7.33;;
9976;SDS011;5029;47.378;11.776;2022-12-15T07:39:12;7.43;;;6.50;;
9976;SDS011;5029;47.378;11.776;2022-12-15T07:44:25;8.27;;;6.67;;
9976;SDS011;5029;47.378;11.776;2022-12-15T07:49:32;8.40;;;6.90;;
9976;SDS011;5029;47.378;11.776;2022-12-15T07:54:38;8.37;;;6.70;;
9976;SDS011;5029;47.378;11.776;2022-12-15T07:59:42;8.00;;;6.57;;
9976;SDS011;5029;47.378;11.776;2022-12-15T08:05:04;7.73;;;6.83;;
9976;SDS011;5029;47.378;11.776;2022-12-15T08:10:17;9.43;;;8.43;;
9976;SDS011;5029;47.378;11.776;2022-12-15T08:15:23;16.33;;;13.13;;
9976;SDS011;5029;47.378;11.776;2022-12-15T08:21:00;16.33;;;12.90;;
9976;SDS011;5029;47.378;11.776;2022-12-15T08:32:15;11.60;;;10.40;;
9976;SDS011;5029;47.378;11.776;2022-12-15T08:37:41;11.73;;;10.27;;
9976;SDS011;5029;47.378;11.776;2022-12-15T08:54:17;17.07;;;12.53;;
9976;SDS011;5029;47.378;11.776;2022-12-15T08:59:32;14.67;;;11.47;;
9976;SDS011;5029;47.378;11.776;2022-12-15T09:04:40;12.33;;;10.13;;
9976;SDS011;5029;47.378;11.776;2022-12-15T09:10:07;13.60;;;11.07;;
9976;SDS011;5029;47.378;11.776;2022-12-15T09:15:24;12.43;;;9.70;;
9976;SDS011;5029;47.378;11.776;2022-12-15T09:21:01;13.90;;;10.43;;
9976;SDS011;5029;47.378;11.776;2022-12-15T10:08:12;12.27;;;10.37;;
9976;SDS011;5029;47.378;11.776;2022-12-15T10:13:27;14.37;;;12.53;;
9976;SDS011;5029;47.378;11.776;2022-12-15T10:19:06;12.13;;;10.20;;
9976;SDS011;5029;47.378;11.776;2022-12-15T10:25:13;11.03;;;9.27;;
9976;SDS011;5029;47.378;11.776;2022-12-15T10:31:01;12.13;;;9.37;;
9976;SDS011;5029;47.378;11.776;2022-12-15T10:36:55;15.50;;;10.03;;
9976;SDS011;5029;47.378;11.776;2022-12-15T10:47:57;8.90;;;7.97;;
9976;SDS011;5029;47.378;11.776;2022-12-15T10:59:23;9.63;;;8.63;;
9976;SDS011;5029;47.378;11.776;2022-12-15T11:04:41;12.73;;;10.80;;
9976;SDS011;5029;47.378;11.776;2022-12-15T11:10:50;11.67;;;10.47;;
9976;SDS011;5029;47.378;11.776;2022-12-15T11:16:29;18.60;;;10.93;;
9976;SDS011;5029;47.378;11.776;2022-12-15T11:22:03;13.20;;;11.30;;
9976;SDS011;5029;47.378;11.776;2022-12-15T11:27:27;13.17;;;10.97;;
9976;SDS011;5029;47.378;11.776;2022-12-15T11:38:39;13.03;;;11.23;;
9976;SDS011;5029;47.378;11.776;2022-12-15T11:44:15;13.53;;;11.80;;
9976;SDS011;5029;47.378;11.776;2022-12-15T11:50:07;14.67;;;12.13;;
9976;SDS011;5029;47.378;11.776;2022-12-15T11:55:39;14.87;;;12.03;;
9976;SDS011;5029;47.378;11.776;2022-12-15T12:01:11;15.17;;;12.37;;
9976;SDS011;5029;47.378;11.776;2022-12-15T12:12:44;16.47;;;12.47;;
9976;SDS011;5029;47.378;11.776;2022-12-15T12:18:09;14.17;;;12.63;;
9976;SDS011;5029;47.378;11.776;2022-12-15T12:23:26;14.60;;;12.73;;
9976;SDS011;5029;47.378;11.776;2022-12-15T12:28:39;17.27;;;13.50;;
9976;SDS011;5029;47.378;11.776;2022-12-15T12:33:54;15.57;;;13.97;;
9976;SDS011;5029;47.378;11.776;2022-12-15T12:39:09;16.67;;;14.20;;
9976;SDS011;5029;47.378;11.776;2022-12-15T12:44:27;17.17;;;14.00;;
9976;SDS011;5029;47.378;11.776;2022-12-15T12:49:36;16.20;;;13.57;;
9976;SDS011;5029;47.378;11.776;2022-12-15T12:54:59;17.27;;;14.43;;
9976;SDS011;5029;47.378;11.776;2022-12-15T13:00:32;22.63;;;14.53;;
9976;SDS011;5029;47.378;11.776;2022-12-15T13:05:39;16.73;;;14.40;;
9976;SDS011;5029;47.378;11.776;2022-12-15T13:10:46;20.67;;;15.50;;
9976;SDS011;5029;47.378;11.776;2022-12-15T13:15:56;16.13;;;13.20;;
9976;SDS011;5029;47.378;11.776;2022-12-15T13:21:43;19.97;;;15.80;;
9976;SDS011;5029;47.378;11.776;2022-12-15T13:27:02;17.10;;;15.10;;
9976;SDS011;5029;47.378;11.776;2022-12-15T13:32:25;18.17;;;14.67;;
9976;SDS011;5029;47.378;11.776;2022-12-15T13:37:45;18.97;;;15.77;;
9976;SDS011;5029;47.378;11.776;2022-12-15T13:42:56;17.77;;;15.00;;
9976;SDS011;5029;47.378;11.776;2022-12-15T13:48:24;20.83;;;16.90;;
9976;SDS011;5029;47.378;11.776;2022-12-15T13:53:39;18.57;;;16.07;;
9976;SDS011;5029;47.378;11.776;2022-12-15T13:59:03;21.07;;;17.00;;
9976;SDS011;5029;47.378;11.776;2022-12-15T14:04:18;19.70;;;15.87;;
9976;SDS011;5029;47.378;11.776;2022-12-15T14:09:29;20.33;;;16.27;;
9976;SDS011;5029;47.378;11.776;2022-12-15T14:14:41;21.90;;;19.10;;
9976;SDS011;5029;47.378;11.776;2022-12-15T14:19:55;18.63;;;15.00;;
9976;SDS011;5029;47.378;11.776;2022-12-15T14:25:20;27.33;;;21.67;;
9976;SDS011;5029;47.378;11.776;2022-12-15T14:30:32;17.40;;;15.43;;
9976;SDS011;5029;47.378;11.776;2022-12-15T14:41:13;20.50;;;15.83;;
9976;SDS011;5029;47.378;11.776;2022-12-15T14:46:30;26.80;;;22.37;;
9976;SDS011;5029;47.378;11.776;2022-12-15T14:51:42;21.10;;;16.90;;
9976;SDS011;5029;47.378;11.776;2022-12-15T14:56:58;18.97;;;16.40;;
9976;SDS011;5029;47.378;11.776;2022-12-15T15:02:11;20.50;;;17.10;;
9976;SDS011;5029;47.378;11.776;2022-12-15T15:07:32;25.40;;;20.27;;
9976;SDS011;5029;47.378;11.776;2022-12-15T15:12:51;21.57;;;17.83;;
9976;SDS011;5029;47.378;11.776;2022-12-15T15:18:02;19.23;;;17.17;;
9976;SDS011;5029;47.378;11.776;2022-12-15T15:23:14;21.30;;;17.00;;
9976;SDS011;5029;47.378;11.776;2022-12-15T15:28:26;21.37;;;18.10;;
9976;SDS011;5029;47.378;11.776;2022-12-15T15:33:32;23.10;;;16.87;;
9976;SDS011;5029;47.378;11.776;2022-12-15T15:38:38;20.17;;;16.23;;
9976;SDS011;5029;47.378;11.776;2022-12-15T15:43:45;22.23;;;16.17;;
9976;SDS011;5029;47.378;11.776;2022-12-15T15:48:51;17.50;;;14.77;;
9976;SDS011;5029;47.378;11.776;2022-12-15T15:54:00;17.43;;;15.27;;
9976;SDS011;5029;47.378;11.776;2022-12-15T15:59:08;18.63;;;14.50;;
9976;SDS011;5029;47.378;11.776;2022-12-15T16:04:19;16.83;;;14.43;;
9976;SDS011;5029;47.378;11.776;2022-12-15T16:09:31;18.43;;;14.27;;
9976;SDS011;5029;47.378;11.776;2022-12-15T16:14:38;18.70;;;15.80;;
9976;SDS011;5029;47.378;11.776;2022-12-15T16:19:47;18.20;;;15.87;;
9976;SDS011;5029;47.378;11.776;2022-12-15T16:25:16;19.00;;;15.73;;
9976;SDS011;5029;47.378;11.776;2022-12-15T16:30:28;17.53;;;15.27;;
9976;SDS011;5029;47.378;11.776;2022-12-15T16:35:37;18.37;;;15.47;;
9976;SDS011;5029;47.378;11.776;2022-12-15T16:40:56;22.37;;;16.53;;
9976;SDS011;5029;47.378;11.776;2022-12-15T16:46:16;19.93;;;16.97;;
9976;SDS011;5029;47.378;11.776;2022-12-15T16:51:29;18.63;;;16.43;;
9976;SDS011;5029;47.378;11.776;2022-12-15T16:56:42;17.93;;;16.07;;
9976;SDS011;5029;47.378;11.776;2022-12-15T17:01:56;19.47;;;17.13;;
9976;SDS011;5029;47.378;11.776;2022-12-15T17:07:03;22.57;;;18.17;;
9976;SDS011;5029;47.378;11.776;2022-12-15T17:12:22;21.00;;;18.33;;
9976;SDS011;5029;47.378;11.776;2022-12-15T17:17:43;20.20;;;17.13;;
9976;SDS011;5029;47.378;11.776;2022-12-15T17:23:00;23.17;;;17.83;;
9976;SDS011;5029;47.378;11.776;2022-12-15T17:28:30;21.70;;;18.60;;
9976;SDS011;5029;47.378;11.776;2022-12-15T17:33:43;24.97;;;19.50;;
9976;SDS011;5029;47.378;11.776;2022-12-15T17:38:49;23.17;;;18.43;;
9976;SDS011;5029;47.378;11.776;2022-12-15T17:44:02;22.60;;;18.63;;
9976;SDS011;5029;47.378;11.776;2022-12-15T17:49:36;21.77;;;18.63;;
9976;SDS011;5029;47.378;11.776;2022-12-15T17:55:17;22.40;;;18.43;;
9976;SDS011;5029;47.378;11.776;2022-12-15T18:01:08;25.90;;;22.17;;
9976;SDS011;5029;47.378;11.776;2022-12-15T18:06:19;25.43;;;21.13;;
9976;SDS011;5029;47.378;11.776;2022-12-15T18:11:42;28.67;;;22.93;;
9976;SDS011;5029;47.378;11.776;2022-12-15T18:16:56;25.50;;;20.87;;
9976;SDS011;5029;47.378;11.776;2022-12-15T18:22:05;27.73;;;22.20;;
9976;SDS011;5029;47.378;11.776;2022-12-15T18:27:24;25.30;;;20.30;;
9976;SDS011;5029;47.378;11.776;2022-12-15T18:32:34;27.87;;;22.20;;
9976;SDS011;5029;47.378;11.776;2022-12-15T18:37:43;25.93;;;21.00;;
9976;SDS011;5029;47.378;11.776;2022-12-15T18:42:53;27.20;;;22.03;;
9976;SDS011;5029;47.378;11.776;2022-12-15T18:48:10;28.53;;;22.57;;
9976;SDS011;5029;47.378;11.776;2022-12-15T18:53:36;27.03;;;22.43;;
9976;SDS011;5029;47.378;11.776;2022-12-15T18:58:47;29.43;;;22.63;;
9976;SDS011;5029;47.378;11.776;2022-12-15T19:04:02;24.10;;;20.27;;
9976;SDS011;5029;47.378;11.776;2022-12-15T19:09:17;25.77;;;22.70;;
9976;SDS011;5029;47.378;11.776;2022-12-15T19:14:38;36.60;;;30.77;;
9976;SDS011;5029;47.378;11.776;2022-12-15T19:19:54;31.20;;;24.70;;
9976;SDS011;5029;47.378;11.776;2022-12-15T19:25:27;26.57;;;21.33;;
9976;SDS011;5029;47.378;11.776;2022-12-15T19:30:40;24.37;;;19.93;;
9976;SDS011;5029;47.378;11.776;2022-12-15T19:35:52;28.43;;;22.53;;
9976;SDS011;5029;47.378;11.776;2022-12-15T19:41:00;23.93;;;20.57;;
9976;SDS011;5029;47.378;11.776;2022-12-15T19:46:20;29.10;;;21.97;;
9976;SDS011;5029;47.378;11.776;2022-12-15T19:51:33;30.73;;;22.33;;
9976;SDS011;5029;47.378;11.776;2022-12-15T19:57:08;26.10;;;22.53;;
9976;SDS011;5029;47.378;11.776;2022-12-15T20:02:32;28.30;;;22.77;;
9976;SDS011;5029;47.378;11.776;2022-12-15T20:07:46;29.43;;;22.17;;
9976;SDS011;5029;47.378;11.776;2022-12-15T20:13:02;24.80;;;21.03;;
9976;SDS011;5029;47.378;11.776;2022-12-15T20:18:14;28.43;;;21.40;;
9976;SDS011;5029;47.378;11.776;2022-12-15T20:23:22;26.37;;;20.67;;
9976;SDS011;5029;47.378;11.776;2022-12-15T20:28:46;27.87;;;21.50;;
9976;SDS011;5029;47.378;11.776;2022-12-15T20:33:58;29.40;;;22.27;;
9976;SDS011;5029;47.378;11.776;2022-12-15T20:39:16;31.30;;;23.23;;
9976;SDS011;5029;47.378;11.776;2022-12-15T20:44:32;29.93;;;22.10;;
9976;SDS011;5029;47.378;11.776;2022-12-15T20:49:54;28.83;;;22.20;;
9976;SDS011;5029;47.378;11.776;2022-12-15T20:55:04;30.27;;;21.77;;
9976;SDS011;5029;47.378;11.776;2022-12-15T21:00:12;30.87;;;22.57;;
9976;SDS011;5029;47.378;11.776;2022-12-15T21:05:23;31.17;;;22.80;;
9976;SDS011;5029;47.378;11.776;2022-12-15T21:10:31;33.03;;;24.30;;
9976;SDS011;5029;47.378;11.776;2022-12-15T21:15:38;31.90;;;23.03;;
9976;SDS011;5029;47.378;11.776;2022-12-15T21:20:46;31.33;;;23.27;;
9976;SDS011;5029;47.378;11.776;2022-12-15T21:26:13;29.37;;;22.97;;
9976;SDS011;5029;47.378;11.776;2022-12-15T21:31:24;31.83;;;24.00;;
9976;SDS011;5029;47.378;11.776;2022-12-15T21:36:28;27.87;;;22.73;;
9976;SDS011;5029;47.378;11.776;2022-12-15T21:41:36;29.30;;;22.13;;
9976;SDS011;5029;47.378;11.776;2022-12-15T21:47:04;30.30;;;23.43;;
9976;SDS011;5029;47.378;11.776;2022-12-15T21:52:24;31.67;;;23.57;;
9976;SDS011;5029;47.378;11.776;2022-12-15T21:57:34;30.57;;;23.40;;
9976;SDS011;5029;47.378;11.776;2022-12-15T22:02:39;32.27;;;23.70;;
9976;SDS011;5029;47.378;11.776;2022-12-15T22:07:45;32.83;;;25.37;;
9976;SDS011;5029;47.378;11.776;2022-12-15T22:12:53;29.03;;;23.53;;
9976;SDS011;5029;47.378;11.776;2022-12-15T22:18:00;29.63;;;24.47;;
9976;SDS011;5029;47.378;11.776;2022-12-15T22:23:11;28.03;;;23.13;;
9976;SDS011;5029;47.378;11.776;2022-12-15T22:28:27;30.00;;;24.67;;
9976;SDS011;5029;47.378;11.776;2022-12-15T22:33:39;29.60;;;23.63;;
9976;SDS011;5029;47.378;11.776;2022-12-15T22:38:44;30.90;;;23.57;;
9976;SDS011;5029;47.378;11.776;2022-12-15T22:44:12;25.97;;;22.40;;
9976;SDS011;5029;47.378;11.776;2022-12-15T22:49:20;29.73;;;21.90;;
9976;SDS011;5029;47.378;11.776;2022-12-15T22:54:26;28.30;;;21.90;;
9976;SDS011;5029;47.378;11.776;2022-12-15T22:59:39;32.27;;;24.03;;
9976;SDS011;5029;47.378;11.776;2022-12-15T23:04:48;29.13;;;23.07;;
9976;SDS011;5029;47.378;11.776;2022-12-15T23:09:55;33.47;;;24.20;;
9976;SDS011;5029;47.378;11.776;2022-12-15T23:15:14;28.40;;;22.47;;
9976;SDS011;5029;47.378;11.776;2022-12-15T23:20:35;30.60;;;23.70;;
9976;SDS011;5029;47.378;11.776;2022-12-15T23:25:39;30.53;;;23.27;;
9976;SDS011;5029;47.378;11.776;2022-12-15T23:36:41;29.83;;;23.07;;
9976;SDS011;5029;47.378;11.776;2022-12-15T23:41:49;28.20;;;21.73;;
9976;SDS011;5029;47.378;11.776;2022-12-15T23:46:53;31.03;;;23.10;;
9976;SDS011;5029;47.378;11.776;2022-12-15T23:52:03;29.17;;;22.70;;
9976;SDS011;5029;47.378;11.776;2022-12-15T23:57:09;29.77;;;23.10;;
